Aviation Digital Data Service (ADDS)

Output produced by METARs form (0027 UTC 13 February 2016)
found at http://aviationweather.gov/adds/metars/
 
KLFT 122320Z 1300/1324 27006KT P6SM SCT030 
     FM130300 35005KT P6SM FEW030 
     FM130600 02006KT P6SM SKC 
     FM131500 04011KT P6SM SKC